Time;durP1;ratioP1;P1;durP2;ratioP2;P2;SDS_P1;SDS_P2;PMS_P1;PMS_P2;Temp;Humidity;BMP_temperature;BMP_pressure;BME280_temperature;BME280_humidity;BME280_pressure;Samples;Min_cycle;Max_cycle;Signal;HPM_P1;HPM_P2
2021/12/26 00:00:41;;;;;;;8.30;6.10;;;;;;;;;;5090288;28;20911;-49
2021/12/26 00:03:07;;;;;;;7.90;6.07;;;;;;;;;;5090064;28;20723;-50
2021/12/26 00:05:33;;;;;;;8.15;6.22;;;;;;;;;;5090813;28;20213;-50
2021/12/26 00:07:59;;;;;;;7.45;6.10;;;;;;;;;;5090682;28;20185;-50
2021/12/26 00:10:26;;;;;;;7.82;6.00;;;;;;;;;;5073721;28;20580;-50
2021/12/26 00:12:52;;;;;;;8.10;5.35;;;;;;;;;;5091570;28;20231;-50
2021/12/26 00:15:18;;;;;;;6.97;5.68;;;;;;;;;;5075718;28;20188;-50
2021/12/26 00:17:44;;;;;;;7.18;5.50;;;;;;;;;;5093996;28;20537;-49
2021/12/26 00:20:11;;;;;;;7.85;5.65;;;;;;;;;;5091575;28;20194;-50
2021/12/26 00:22:38;;;;;;;6.75;6.00;;;;;;;;;;5092689;28;20186;-49
2021/12/26 00:25:05;;;;;;;7.20;5.57;;;;;;;;;;5095354;28;20893;-50
2021/12/26 00:27:31;;;;;;;6.45;5.53;;;;;;;;;;5093858;28;20189;-50
2021/12/26 00:29:57;;;;;;;7.43;5.47;;;;;;;;;;5091947;28;20251;-50
2021/12/26 00:32:23;;;;;;;6.25;5.30;;;;;;;;;;5093689;28;20186;-49
2021/12/26 00:34:50;;;;;;;8.18;5.60;;;;;;;;;;5094900;28;20188;-49
2021/12/26 00:37:17;;;;;;;7.68;5.47;;;;;;;;;;5094033;28;20608;-50
2021/12/26 00:39:43;;;;;;;5.97;5.38;;;;;;;;;;5094691;28;20186;-50
2021/12/26 00:42:09;;;;;;;7.60;5.70;;;;;;;;;;5094532;28;20277;-50
2021/12/26 00:44:39;;;;;;;6.00;5.40;;;;;;;;;;5093582;28;20170;-50
2021/12/26 00:47:06;;;;;;;6.05;4.85;;;;;;;;;;5095902;28;20468;-50
2021/12/26 00:49:32;;;;;;;7.32;5.43;;;;;;;;;;5098532;28;20726;-50
2021/12/26 00:51:58;;;;;;;7.05;5.60;;;;;;;;;;5099485;28;20581;-50
2021/12/26 00:54:24;;;;;;;6.72;5.30;;;;;;;;;;5103485;28;20233;-50
2021/12/26 00:56:50;;;;;;;6.60;5.38;;;;;;;;;;5096800;28;20182;-50
2021/12/26 00:59:16;;;;;;;6.60;5.20;;;;;;;;;;5103324;28;20185;-50
2021/12/26 01:01:42;;;;;;;6.78;5.20;;;;;;;;;;5109660;28;20629;-50
2021/12/26 01:04:08;;;;;;;8.70;5.13;;;;;;;;;;5107588;28;20260;-49
2021/12/26 01:06:34;;;;;;;7.15;5.60;;;;;;;;;;5097877;28;20264;-50
2021/12/26 01:09:00;;;;;;;5.85;4.80;;;;;;;;;;5104500;28;20217;-49
2021/12/26 01:11:36;;;;;;;6.32;5.22;;;;;;;;;;5095780;28;20297;-50
2021/12/26 01:14:04;;;;;;;7.40;5.28;;;;;;;;;;5093515;28;20197;-49
2021/12/26 01:16:30;;;;;;;6.88;5.35;;;;;;;;;;5103871;28;20219;-49
2021/12/26 01:19:07;;;;;;;6.05;4.80;;;;;;;;;;5103838;28;20216;-50
2021/12/26 01:21:33;;;;;;;6.30;5.38;;;;;;;;;;5088502;28;20641;-50
2021/12/26 01:24:01;;;;;;;6.28;4.97;;;;;;;;;;5073443;28;20182;-49
2021/12/26 01:26:27;;;;;;;5.47;4.93;;;;;;;;;;5104430;28;20479;-50
2021/12/26 01:28:53;;;;;;;5.90;5.30;;;;;;;;;;5110556;28;20259;-49
2021/12/26 01:31:20;;;;;;;5.70;4.97;;;;;;;;;;5096880;28;20206;-49
2021/12/26 01:33:50;;;;;;;5.63;5.00;;;;;;;;;;5085971;28;20510;-49
2021/12/26 01:36:16;;;;;;;6.35;5.40;;;;;;;;;;5106243;28;20193;-50
2021/12/26 01:38:42;;;;;;;6.20;5.15;;;;;;;;;;5097450;28;20177;-50
2021/12/26 01:41:10;;;;;;;5.30;4.80;;;;;;;;;;5093908;28;20250;-50
2021/12/26 01:43:37;;;;;;;6.20;5.30;;;;;;;;;;5098279;28;20506;-49
2021/12/26 01:46:03;;;;;;;6.57;5.30;;;;;;;;;;5103238;28;20208;-50
2021/12/26 01:48:29;;;;;;;5.30;4.78;;;;;;;;;;5093178;28;20194;-50
2021/12/26 01:50:55;;;;;;;6.10;5.47;;;;;;;;;;5093240;28;20210;-50
2021/12/26 01:53:23;;;;;;;5.82;5.22;;;;;;;;;;5092189;28;20212;-49
2021/12/26 01:55:50;;;;;;;7.28;5.93;;;;;;;;;;5093948;28;20166;-50
2021/12/26 01:58:21;;;;;;;6.53;5.30;;;;;;;;;;5092245;28;20245;-50
2021/12/26 02:00:49;;;;;;;6.10;5.05;;;;;;;;;;5086208;28;20196;-49
2021/12/26 02:03:15;;;;;;;5.72;5.18;;;;;;;;;;5090968;28;20193;-50
2021/12/26 02:05:41;;;;;;;6.90;4.85;;;;;;;;;;5093682;28;20237;-49
2021/12/26 02:08:08;;;;;;;6.05;5.22;;;;;;;;;;5085084;28;20228;-50
2021/12/26 02:10:34;;;;;;;6.60;5.05;;;;;;;;;;5093462;28;20434;-49
2021/12/26 02:13:00;;;;;;;5.47;4.97;;;;;;;;;;5092330;28;20192;-50
2021/12/26 02:15:26;;;;;;;6.75;5.07;;;;;;;;;;5092867;28;20208;-49
2021/12/26 02:17:52;;;;;;;6.45;5.32;;;;;;;;;;5093235;28;20353;-49
2021/12/26 02:20:25;;;;;;;5.55;4.88;;;;;;;;;;5096512;28;20614;-50
2021/12/26 02:22:57;;;;;;;5.38;4.80;;;;;;;;;;5087770;28;20182;-50
2021/12/26 02:28:08;;;;;;;6.38;5.00;;;;;;;;;;5084266;28;20212;-50
2021/12/26 02:30:34;;;;;;;5.30;4.80;;;;;;;;;;5084550;28;20600;-49
2021/12/26 02:33:03;;;;;;;5.80;4.95;;;;;;;;;;5085107;28;20193;-50
2021/12/26 02:35:29;;;;;;;5.90;4.68;;;;;;;;;;5089367;28;20206;-49
2021/12/26 02:37:55;;;;;;;6.38;5.07;;;;;;;;;;5091988;28;20188;-49
2021/12/26 02:40:21;;;;;;;6.20;5.03;;;;;;;;;;5092772;28;20181;-50
2021/12/26 02:42:47;;;;;;;5.90;5.10;;;;;;;;;;5088015;28;20188;-50
2021/12/26 02:45:14;;;;;;;5.07;4.45;;;;;;;;;;5084619;28;20451;-49
2021/12/26 02:47:41;;;;;;;5.40;4.78;;;;;;;;;;5092544;28;20201;-50
2021/12/26 02:50:10;;;;;;;5.55;4.85;;;;;;;;;;5093815;28;20209;-49
2021/12/26 02:52:36;;;;;;;6.05;4.88;;;;;;;;;;5089321;28;20174;-49
2021/12/26 02:55:03;;;;;;;5.40;4.75;;;;;;;;;;5087078;28;20456;-50
2021/12/26 02:57:29;;;;;;;4.90;4.25;;;;;;;;;;5084857;28;20201;-50
2021/12/26 02:59:55;;;;;;;6.25;5.07;;;;;;;;;;5092885;28;20181;-49
2021/12/26 03:02:21;;;;;;;5.35;4.65;;;;;;;;;;5089638;28;20274;-49
2021/12/26 03:04:47;;;;;;;5.85;5.10;;;;;;;;;;5090613;28;20261;-50
2021/12/26 03:07:13;;;;;;;5.13;4.63;;;;;;;;;;5092464;28;20186;-50
2021/12/26 03:09:48;;;;;;;5.10;4.60;;;;;;;;;;5092502;28;20185;-50
2021/12/26 03:12:14;;;;;;;5.68;4.78;;;;;;;;;;5090801;28;20201;-50
2021/12/26 03:14:41;;;;;;;5.22;4.72;;;;;;;;;;5091727;28;20276;-50
2021/12/26 03:17:07;;;;;;;5.00;4.50;;;;;;;;;;5091395;28;20587;-50
2021/12/26 03:19:34;;;;;;;5.03;4.53;;;;;;;;;;5092987;28;20269;-49
2021/12/26 03:22:00;;;;;;;5.72;5.13;;;;;;;;;;5090750;28;20173;-50
2021/12/26 03:24:27;;;;;;;4.85;4.35;;;;;;;;;;5088716;28;20192;-50
2021/12/26 03:27:03;;;;;;;4.88;4.38;;;;;;;;;;5088248;28;20182;-50
2021/12/26 03:29:29;;;;;;;5.60;4.68;;;;;;;;;;5090238;28;20223;-49
2021/12/26 03:31:56;;;;;;;5.07;4.57;;;;;;;;;;5092463;28;20296;-49
2021/12/26 03:34:22;;;;;;;4.63;4.18;;;;;;;;;;5080436;28;20177;-49
2021/12/26 03:36:51;;;;;;;4.93;4.43;;;;;;;;;;5091869;28;20283;-49
2021/12/26 03:39:18;;;;;;;5.75;4.95;;;;;;;;;;5092183;28;20528;-50
2021/12/26 03:41:44;;;;;;;5.38;4.88;;;;;;;;;;5088835;28;20213;-49
2021/12/26 03:44:10;;;;;;;5.97;4.80;;;;;;;;;;5086732;28;20173;-49
2021/12/26 03:46:36;;;;;;;5.45;4.60;;;;;;;;;;5095595;28;20268;-50
2021/12/26 03:49:05;;;;;;;5.15;4.65;;;;;;;;;;5088376;28;20296;-49
2021/12/26 03:51:31;;;;;;;5.18;4.68;;;;;;;;;;5093412;28;20205;-49
2021/12/26 03:53:57;;;;;;;4.90;4.40;;;;;;;;;;5091595;28;20239;-50
2021/12/26 03:56:23;;;;;;;5.05;4.38;;;;;;;;;;5093081;28;20190;-50
2021/12/26 03:58:49;;;;;;;5.05;4.55;;;;;;;;;;5095423;28;20174;-49
2021/12/26 04:01:15;;;;;;;5.03;4.47;;;;;;;;;;5095577;28;20518;-49
2021/12/26 04:03:41;;;;;;;4.97;4.47;;;;;;;;;;5092930;28;20223;-50
2021/12/26 04:06:09;;;;;;;4.70;4.22;;;;;;;;;;5096065;28;20189;-49
2021/12/26 04:08:35;;;;;;;4.97;4.47;;;;;;;;;;5087927;28;20182;-50
2021/12/26 04:11:01;;;;;;;4.93;4.43;;;;;;;;;;5092030;28;20198;-49
2021/12/26 04:13:27;;;;;;;4.88;4.38;;;;;;;;;;5087663;28;20620;-49
2021/12/26 04:15:53;;;;;;;4.93;4.13;;;;;;;;;;5099215;28;20181;-49
2021/12/26 04:18:19;;;;;;;4.60;4.20;;;;;;;;;;5095168;28;20557;-50
2021/12/26 04:20:45;;;;;;;5.15;4.57;;;;;;;;;;5095105;28;20231;-49
2021/12/26 04:23:14;;;;;;;5.30;4.22;;;;;;;;;;5092067;28;20661;-50
2021/12/26 04:25:40;;;;;;;4.68;4.28;;;;;;;;;;5094181;28;20235;-49
2021/12/26 04:28:06;;;;;;;4.93;4.20;;;;;;;;;;5087414;28;20190;-50
2021/12/26 04:30:33;;;;;;;4.75;4.22;;;;;;;;;;5073099;28;20206;-50
2021/12/26 04:33:00;;;;;;;4.97;4.47;;;;;;;;;;5093941;28;20208;-50
2021/12/26 04:35:26;;;;;;;5.57;4.72;;;;;;;;;;5094026;28;20177;-50
2021/12/26 04:37:52;;;;;;;4.97;4.47;;;;;;;;;;5093801;28;20174;-50
2021/12/26 04:40:18;;;;;;;5.40;4.32;;;;;;;;;;5095005;28;20694;-50
2021/12/26 04:42:46;;;;;;;5.43;4.47;;;;;;;;;;5094050;28;20505;-50
2021/12/26 04:45:12;;;;;;;6.15;4.65;;;;;;;;;;5097003;28;20235;-49
2021/12/26 04:47:39;;;;;;;5.68;4.57;;;;;;;;;;5101418;28;20201;-49
2021/12/26 04:50:07;;;;;;;4.95;4.18;;;;;;;;;;5101154;28;20215;-49
2021/12/26 04:52:33;;;;;;;5.63;4.85;;;;;;;;;;5097824;28;20675;-50
2021/12/26 04:55:02;;;;;;;4.95;4.25;;;;;;;;;;5107744;28;20276;-49
2021/12/26 04:57:28;;;;;;;5.00;4.50;;;;;;;;;;5092478;28;20185;-49
2021/12/26 04:59:54;;;;;;;4.82;4.38;;;;;;;;;;5099741;28;20535;-49
2021/12/26 05:02:20;;;;;;;4.63;4.10;;;;;;;;;;5097639;28;20206;-49
2021/12/26 05:04:46;;;;;;;5.00;4.50;;;;;;;;;;5104374;28;20184;-50
2021/12/26 05:07:12;;;;;;;6.13;4.63;;;;;;;;;;5094975;28;20186;-50
2021/12/26 05:09:38;;;;;;;4.68;4.15;;;;;;;;;;5104433;28;20188;-49
2021/12/26 05:12:04;;;;;;;5.05;4.32;;;;;;;;;;5092781;28;20481;-50
2021/12/26 05:14:30;;;;;;;6.30;5.32;;;;;;;;;;5095680;28;20201;-49
2021/12/26 05:16:56;;;;;;;7.18;5.15;;;;;;;;;;5094221;28;20205;-50
2021/12/26 05:19:22;;;;;;;6.20;4.93;;;;;;;;;;5101363;28;20178;-47
2021/12/26 05:21:48;;;;;;;8.65;5.13;;;;;;;;;;5109539;28;20689;-47
2021/12/26 05:24:14;;;;;;;6.97;5.00;;;;;;;;;;5099200;28;20198;-47
2021/12/26 05:26:40;;;;;;;7.03;5.43;;;;;;;;;;5098740;28;20201;-47
2021/12/26 05:29:06;;;;;;;9.80;5.72;;;;;;;;;;5094690;28;20276;-47
2021/12/26 05:31:32;;;;;;;9.98;5.90;;;;;;;;;;5095456;28;20354;-47
2021/12/26 05:33:58;;;;;;;8.18;5.32;;;;;;;;;;5099383;28;20414;-47
2021/12/26 05:36:25;;;;;;;8.32;5.78;;;;;;;;;;5099792;28;20216;-47
2021/12/26 05:38:51;;;;;;;8.35;5.65;;;;;;;;;;5110555;28;20192;-47
2021/12/26 05:41:17;;;;;;;10.65;6.05;;;;;;;;;;5086048;28;20191;-49
2021/12/26 05:43:43;;;;;;;7.57;5.22;;;;;;;;;;5095871;28;20264;-49
2021/12/26 05:46:09;;;;;;;6.80;5.28;;;;;;;;;;5072418;28;20189;-49
2021/12/26 05:48:35;;;;;;;8.30;5.28;;;;;;;;;;5096010;28;20188;-49
2021/12/26 05:51:02;;;;;;;9.05;5.68;;;;;;;;;;5093109;28;20611;-49
2021/12/26 05:53:28;;;;;;;8.20;4.90;;;;;;;;;;5094232;28;20440;-49
2021/12/26 05:55:54;;;;;;;10.30;5.43;;;;;;;;;;5093252;28;20217;-47
2021/12/26 05:58:20;;;;;;;7.60;4.80;;;;;;;;;;5092395;28;20181;-47
2021/12/26 06:00:46;;;;;;;6.30;4.75;;;;;;;;;;5093447;28;20204;-47
2021/12/26 06:03:12;;;;;;;7.75;4.63;;;;;;;;;;5090771;28;20580;-47
2021/12/26 06:05:38;;;;;;;7.28;4.63;;;;;;;;;;5092364;28;20186;-47
2021/12/26 06:08:04;;;;;;;8.63;5.20;;;;;;;;;;5093193;28;20213;-47
2021/12/26 06:10:31;;;;;;;6.13;4.95;;;;;;;;;;5093337;28;20259;-47
2021/12/26 06:12:57;;;;;;;11.50;6.80;;;;;;;;;;5074481;28;20216;-47
2021/12/26 06:15:23;;;;;;;21.58;11.48;;;;;;;;;;5090509;28;20206;-47
2021/12/26 06:17:49;;;;;;;28.48;15.07;;;;;;;;;;5076362;28;20254;-47
2021/12/26 06:20:15;;;;;;;28.33;16.20;;;;;;;;;;5088991;28;20173;-47
2021/12/26 06:22:45;;;;;;;33.40;17.08;;;;;;;;;;5092520;28;20851;-47
2021/12/26 06:25:12;;;;;;;35.85;17.77;;;;;;;;;;5091384;28;20545;-47
2021/12/26 06:27:38;;;;;;;43.08;19.35;;;;;;;;;;5092015;28;20174;-47
2021/12/26 06:30:07;;;;;;;31.65;18.30;;;;;;;;;;5093530;28;20291;-47
2021/12/26 06:32:34;;;;;;;37.90;18.25;;;;;;;;;;5093046;28;20182;-47
2021/12/26 06:35:01;;;;;;;41.10;19.00;;;;;;;;;;5092268;28;20182;-47
2021/12/26 06:37:28;;;;;;;48.58;26.58;;;;;;;;;;5092064;28;20209;-47
2021/12/26 06:39:54;;;;;;;158.30;91.57;;;;;;;;;;5092235;28;20734;-47
2021/12/26 06:42:20;;;;;;;257.45;142.80;;;;;;;;;;5075529;28;20181;-49
2021/12/26 06:44:46;;;;;;;292.25;170.25;;;;;;;;;;5084660;28;20439;-49
2021/12/26 06:47:12;;;;;;;860.33;558.95;;;;;;;;;;5091660;28;20200;-49
2021/12/26 06:49:39;;;;;;;623.25;351.52;;;;;;;;;;5092379;28;20220;-49
2021/12/26 06:52:06;;;;;;;350.17;165.13;;;;;;;;;;5092844;28;20221;-49
2021/12/26 06:54:33;;;;;;;250.98;118.70;;;;;;;;;;5087667;28;20233;-49
2021/12/26 06:56:59;;;;;;;226.82;110.25;;;;;;;;;;5087816;28;20232;-49
2021/12/26 06:59:25;;;;;;;207.40;102.05;;;;;;;;;;5090854;28;20181;-49
2021/12/26 07:01:51;;;;;;;188.57;93.13;;;;;;;;;;5091928;28;20200;-49
2021/12/26 07:04:17;;;;;;;172.10;84.32;;;;;;;;;;5092014;28;20181;-49
2021/12/26 07:06:43;;;;;;;166.70;79.70;;;;;;;;;;5092109;28;20169;-49
2021/12/26 07:09:09;;;;;;;162.73;78.68;;;;;;;;;;5091503;28;20631;-49
2021/12/26 07:11:35;;;;;;;144.77;72.75;;;;;;;;;;5089730;28;20209;-49
2021/12/26 07:14:01;;;;;;;140.30;66.95;;;;;;;;;;5091738;28;20186;-49
2021/12/26 07:16:27;;;;;;;112.68;56.97;;;;;;;;;;5091708;28;20205;-49
2021/12/26 07:18:53;;;;;;;129.23;58.72;;;;;;;;;;5089996;28;20706;-50
2021/12/26 07:21:19;;;;;;;112.07;54.50;;;;;;;;;;5092142;28;20185;-49
2021/12/26 07:23:45;;;;;;;98.32;49.72;;;;;;;;;;5092938;28;20196;-49
2021/12/26 07:26:11;;;;;;;98.45;48.42;;;;;;;;;;5090799;28;20188;-49
2021/12/26 07:28:37;;;;;;;92.13;46.13;;;;;;;;;;5092039;28;20504;-50
2021/12/26 07:31:03;;;;;;;83.30;43.47;;;;;;;;;;5092107;28;20217;-50
2021/12/26 07:33:29;;;;;;;93.85;45.13;;;;;;;;;;5091043;28;20177;-50
2021/12/26 07:35:55;;;;;;;99.13;48.53;;;;;;;;;;5092057;28;20194;-49
2021/12/26 07:38:21;;;;;;;98.80;48.45;;;;;;;;;;5091184;28;20754;-49
2021/12/26 07:40:48;;;;;;;99.60;48.13;;;;;;;;;;5092354;28;20177;-49
2021/12/26 07:43:14;;;;;;;99.47;51.17;;;;;;;;;;5092756;28;20185;-49
2021/12/26 07:45:41;;;;;;;122.95;56.88;;;;;;;;;;5089694;28;20190;-49
2021/12/26 07:48:07;;;;;;;110.22;53.35;;;;;;;;;;5088932;28;20193;-50
2021/12/26 07:50:33;;;;;;;96.20;46.95;;;;;;;;;;5090905;28;20208;-50
2021/12/26 07:53:05;;;;;;;96.57;45.22;;;;;;;;;;5092595;28;20188;-49
2021/12/26 07:55:31;;;;;;;83.35;44.05;;;;;;;;;;5090910;28;20185;-50
2021/12/26 07:57:57;;;;;;;76.72;39.45;;;;;;;;;;5091294;28;20272;-49
2021/12/26 08:00:23;;;;;;;77.43;39.45;;;;;;;;;;5090323;28;20243;-49
2021/12/26 08:02:49;;;;;;;76.55;36.90;;;;;;;;;;5091449;28;20189;-50
2021/12/26 08:05:16;;;;;;;71.15;38.10;;;;;;;;;;5090264;28;20197;-50
2021/12/26 08:07:42;;;;;;;70.22;37.75;;;;;;;;;;5090429;28;20174;-49
2021/12/26 08:10:09;;;;;;;65.85;35.05;;;;;;;;;;5092268;28;20226;-45
2021/12/26 08:12:35;;;;;;;60.70;33.80;;;;;;;;;;5091444;28;20186;-45
2021/12/26 08:15:01;;;;;;;61.42;34.22;;;;;;;;;;5091889;28;20178;-45
2021/12/26 08:17:27;;;;;;;60.85;31.85;;;;;;;;;;5086473;28;20181;-45
2021/12/26 08:19:53;;;;;;;64.35;33.28;;;;;;;;;;5092228;28;20173;-45
2021/12/26 08:22:20;;;;;;;62.92;32.75;;;;;;;;;;5073551;28;20205;-45
2021/12/26 08:24:46;;;;;;;53.40;30.38;;;;;;;;;;5092261;28;20182;-45
2021/12/26 08:27:12;;;;;;;53.47;30.38;;;;;;;;;;5091333;28;20178;-45
2021/12/26 08:29:38;;;;;;;53.97;29.50;;;;;;;;;;5091512;28;20542;-45
2021/12/26 08:32:06;;;;;;;53.83;28.83;;;;;;;;;;5091371;28;20217;-45
2021/12/26 08:34:32;;;;;;;54.33;28.55;;;;;;;;;;5090189;28;20206;-46
2021/12/26 08:37:01;;;;;;;46.22;26.45;;;;;;;;;;5093490;28;20211;-45
2021/12/26 08:39:28;;;;;;;47.30;25.83;;;;;;;;;;5093389;28;20571;-45
2021/12/26 08:41:54;;;;;;;51.78;27.77;;;;;;;;;;5090318;28;20186;-45
2021/12/26 08:44:20;;;;;;;46.55;25.90;;;;;;;;;;5088913;28;20252;-45
2021/12/26 08:46:46;;;;;;;42.45;23.92;;;;;;;;;;5099824;28;20200;-45
2021/12/26 08:49:13;;;;;;;41.20;22.52;;;;;;;;;;5093756;28;20185;-45
2021/12/26 08:51:39;;;;;;;42.60;23.92;;;;;;;;;;5094741;28;20320;-45
2021/12/26 08:54:05;;;;;;;37.50;21.25;;;;;;;;;;5095278;28;20185;-45
2021/12/26 08:56:31;;;;;;;39.55;21.95;;;;;;;;;;5093322;28;20573;-45
2021/12/26 08:58:57;;;;;;;37.75;21.55;;;;;;;;;;5093568;28;20190;-45
2021/12/26 09:01:23;;;;;;;40.08;20.75;;;;;;;;;;5093846;28;20243;-45
2021/12/26 09:03:49;;;;;;;36.88;19.65;;;;;;;;;;5094163;28;20214;-46
2021/12/26 09:06:15;;;;;;;40.60;20.67;;;;;;;;;;5093860;28;20564;-45
2021/12/26 09:08:41;;;;;;;33.95;19.17;;;;;;;;;;5094215;28;20536;-45
2021/12/26 09:11:08;;;;;;;30.20;18.98;;;;;;;;;;5092511;28;20247;-45
2021/12/26 09:13:35;;;;;;;30.40;18.73;;;;;;;;;;5095636;28;20176;-45
2021/12/26 09:16:01;;;;;;;33.13;18.85;;;;;;;;;;5094455;28;20499;-45
2021/12/26 09:18:27;;;;;;;32.72;18.90;;;;;;;;;;5092886;28;20209;-45
2021/12/26 09:20:53;;;;;;;35.47;18.70;;;;;;;;;;5093114;28;20209;-45
2021/12/26 09:23:19;;;;;;;31.33;17.90;;;;;;;;;;5094804;28;20616;-45
2021/12/26 09:25:45;;;;;;;31.02;17.42;;;;;;;;;;5092435;28;20185;-45
2021/12/26 09:28:11;;;;;;;33.75;18.90;;;;;;;;;;5091903;28;20758;-45
2021/12/26 09:30:38;;;;;;;28.33;16.80;;;;;;;;;;5093517;28;20470;-45
2021/12/26 09:33:04;;;;;;;26.73;16.33;;;;;;;;;;5094715;28;20231;-45
2021/12/26 09:35:31;;;;;;;31.48;17.05;;;;;;;;;;5094469;28;20272;-45
2021/12/26 09:37:57;;;;;;;28.25;16.23;;;;;;;;;;5092943;28;20228;-45
2021/12/26 09:40:23;;;;;;;29.88;16.05;;;;;;;;;;5092559;28;20213;-46
2021/12/26 09:42:50;;;;;;;28.92;15.93;;;;;;;;;;5091523;28;20181;-45
2021/12/26 09:45:18;;;;;;;27.17;15.82;;;;;;;;;;5092654;28;20560;-45
2021/12/26 09:47:45;;;;;;;25.40;15.02;;;;;;;;;;5089654;28;20205;-45
2021/12/26 09:50:12;;;;;;;25.00;15.43;;;;;;;;;;5095734;28;20200;-45
2021/12/26 09:52:42;;;;;;;25.30;15.50;;;;;;;;;;5093632;28;20568;-45
2021/12/26 09:55:09;;;;;;;24.63;15.07;;;;;;;;;;5091966;28;20256;-45
2021/12/26 09:57:35;;;;;;;22.58;13.73;;;;;;;;;;5093250;28;20186;-45
2021/12/26 10:00:01;;;;;;;26.50;14.95;;;;;;;;;;5091503;28;20174;-45
2021/12/26 10:02:30;;;;;;;22.30;14.75;;;;;;;;;;5092044;28;20200;-45
2021/12/26 10:04:56;;;;;;;23.60;14.43;;;;;;;;;;5093765;28;20174;-45
2021/12/26 10:07:23;;;;;;;22.60;14.20;;;;;;;;;;5093855;28;20178;-45
2021/12/26 10:09:50;;;;;;;21.35;13.35;;;;;;;;;;5092568;28;20232;-45
2021/12/26 10:12:19;;;;;;;22.45;13.70;;;;;;;;;;5093635;28;20641;-45
2021/12/26 10:14:48;;;;;;;21.67;13.45;;;;;;;;;;5087461;28;20231;-45
2021/12/26 10:17:15;;;;;;;20.08;13.45;;;;;;;;;;5089776;28;20589;-45
2021/12/26 10:19:46;;;;;;;20.75;13.57;;;;;;;;;;5092168;28;20174;-45
2021/12/26 10:22:25;;;;;;;22.95;13.68;;;;;;;;;;5092663;28;20213;-45
2021/12/26 10:24:52;;;;;;;20.60;13.30;;;;;;;;;;5085713;28;20210;-45
2021/12/26 10:27:23;;;;;;;19.70;12.35;;;;;;;;;;5090750;28;20235;-45
2021/12/26 10:29:50;;;;;;;19.80;11.88;;;;;;;;;;5092095;28;20181;-45
2021/12/26 10:32:18;;;;;;;18.35;12.15;;;;;;;;;;5091979;28;20209;-45
2021/12/26 10:34:57;;;;;;;18.88;11.23;;;;;;;;;;5093102;28;20227;-45
2021/12/26 10:37:32;;;;;;;16.45;11.57;;;;;;;;;;5091343;28;20177;-45
2021/12/26 10:40:00;;;;;;;18.92;11.93;;;;;;;;;;5092598;28;20220;-45
2021/12/26 10:42:31;;;;;;;17.15;11.40;;;;;;;;;;5092293;28;20181;-45
2021/12/26 10:44:59;;;;;;;18.45;11.43;;;;;;;;;;5090765;28;20178;-45
2021/12/26 10:47:26;;;;;;;17.60;11.90;;;;;;;;;;5083667;28;20606;-45
2021/12/26 10:49:56;;;;;;;17.02;11.52;;;;;;;;;;5091137;28;20186;-45
2021/12/26 10:52:24;;;;;;;17.10;11.52;;;;;;;;;;5091479;28;20479;-45
2021/12/26 10:54:54;;;;;;;17.33;11.65;;;;;;;;;;5092119;28;20170;-45
2021/12/26 10:57:22;;;;;;;16.67;10.65;;;;;;;;;;5091182;28;20219;-45
2021/12/26 10:59:57;;;;;;;16.50;11.35;;;;;;;;;;5088779;28;20782;-45
2021/12/26 11:02:25;;;;;;;16.20;10.50;;;;;;;;;;5092188;28;20177;-45
2021/12/26 11:04:58;;;;;;;15.35;10.65;;;;;;;;;;5091713;28;20188;-45
2021/12/26 11:07:24;;;;;;;17.45;10.55;;;;;;;;;;5091091;28;20192;-45
2021/12/26 11:10:07;;;;;;;15.75;10.57;;;;;;;;;;5089240;28;20589;-45
2021/12/26 11:12:38;;;;;;;14.85;10.10;;;;;;;;;;5091402;28;20890;-45
2021/12/26 11:15:05;;;;;;;16.70;10.45;;;;;;;;;;5091552;28;20264;-45
2021/12/26 11:17:32;;;;;;;14.40;10.00;;;;;;;;;;5090724;28;20216;-44
2021/12/26 11:19:59;;;;;;;14.43;10.02;;;;;;;;;;5090610;28;20204;-45
2021/12/26 11:22:25;;;;;;;13.35;9.55;;;;;;;;;;5091944;28;20189;-45
2021/12/26 11:24:53;;;;;;;14.43;9.35;;;;;;;;;;5092583;28;20266;-45
2021/12/26 11:27:19;;;;;;;14.10;9.38;;;;;;;;;;5093094;28;20190;-45
2021/12/26 11:29:46;;;;;;;17.30;10.05;;;;;;;;;;5087487;28;20189;-45
2021/12/26 11:32:12;;;;;;;13.48;9.70;;;;;;;;;;5090643;28;20197;-45
2021/12/26 11:34:40;;;;;;;13.40;9.23;;;;;;;;;;5090810;28;20483;-45
2021/12/26 11:37:06;;;;;;;13.93;9.50;;;;;;;;;;5091820;28;20223;-45
2021/12/26 11:39:32;;;;;;;13.82;9.15;;;;;;;;;;5090163;28;20181;-44
2021/12/26 11:42:11;;;;;;;11.85;9.20;;;;;;;;;;5091540;28;20178;-45
2021/12/26 11:44:46;;;;;;;11.95;9.00;;;;;;;;;;5091281;28;20174;-45
2021/12/26 11:47:12;;;;;;;12.85;9.32;;;;;;;;;;5102880;28;20188;-45
2021/12/26 11:49:40;;;;;;;11.90;8.40;;;;;;;;;;5109478;28;20203;-45
2021/12/26 11:52:25;;;;;;;13.85;9.38;;;;;;;;;;5112795;28;20550;-45
2021/12/26 11:54:54;;;;;;;11.40;8.60;;;;;;;;;;5105053;28;20181;-45
2021/12/26 11:57:39;;;;;;;13.23;9.20;;;;;;;;;;5111909;28;20177;-45
2021/12/26 12:00:08;;;;;;;11.52;8.50;;;;;;;;;;5110902;28;20185;-45
2021/12/26 12:02:34;;;;;;;13.73;9.07;;;;;;;;;;5104396;28;20248;-45
2021/12/26 12:05:11;;;;;;;13.32;8.73;;;;;;;;;;5112171;28;20185;-45
2021/12/26 12:07:57;;;;;;;12.52;9.18;;;;;;;;;;5112125;28;20177;-45
2021/12/26 12:10:32;;;;;;;11.20;8.50;;;;;;;;;;5093338;28;20212;-45
2021/12/26 12:12:58;;;;;;;11.00;8.93;;;;;;;;;;5114884;28;20176;-45
2021/12/26 12:15:43;;;;;;;11.98;8.77;;;;;;;;;;5112824;28;20549;-45
2021/12/26 12:18:10;;;;;;;11.95;8.90;;;;;;;;;;5115538;28;20233;-45
2021/12/26 12:20:38;;;;;;;11.23;8.35;;;;;;;;;;5115442;28;20367;-45
2021/12/26 12:23:09;;;;;;;12.55;9.10;;;;;;;;;;5115161;28;20185;-45
2021/12/26 12:25:38;;;;;;;11.73;8.70;;;;;;;;;;5113513;28;20177;-45
2021/12/26 12:28:04;;;;;;;12.77;8.57;;;;;;;;;;5110621;28;20275;-45
2021/12/26 12:30:31;;;;;;;13.07;8.20;;;;;;;;;;5114943;28;20663;-46
2021/12/26 12:33:15;;;;;;;12.40;8.43;;;;;;;;;;5115968;28;20234;-45
2021/12/26 12:36:10;;;;;;;11.02;8.07;;;;;;;;;;5115543;28;20267;-45
2021/12/26 12:38:39;;;;;;;12.45;8.27;;;;;;;;;;5097177;28;20578;-45
2021/12/26 12:41:09;;;;;;;10.45;8.27;;;;;;;;;;5115279;28;20200;-45
2021/12/26 12:43:46;;;;;;;11.38;8.10;;;;;;;;;;5114767;28;20185;-45
2021/12/26 12:46:12;;;;;;;11.18;8.05;;;;;;;;;;5111708;28;20180;-45
2021/12/26 12:48:40;;;;;;;11.15;8.00;;;;;;;;;;5095111;28;20186;-44
2021/12/26 12:51:14;;;;;;;9.70;7.30;;;;;;;;;;5093526;28;20194;-45
2021/12/26 12:53:43;;;;;;;10.88;7.85;;;;;;;;;;5094007;28;20714;-45
2021/12/26 12:56:29;;;;;;;10.98;7.75;;;;;;;;;;5094698;28;20217;-45
2021/12/26 13:01:42;;;;;;;8.48;7.57;;;;;;;;;;5093146;28;20182;-45
2021/12/26 13:04:08;;;;;;;11.23;8.18;;;;;;;;;;5094530;28;20186;-46
2021/12/26 13:06:34;;;;;;;9.52;7.13;;;;;;;;;;5094431;28;20197;-45
2021/12/26 13:09:00;;;;;;;9.73;7.55;;;;;;;;;;5095355;28;20611;-45
2021/12/26 13:11:29;;;;;;;9.73;7.20;;;;;;;;;;5094591;28;20205;-45
2021/12/26 13:13:57;;;;;;;10.00;7.60;;;;;;;;;;5075854;28;20259;-45
2021/12/26 13:16:30;;;;;;;10.07;7.50;;;;;;;;;;5088094;28;20608;-45
2021/12/26 13:19:03;;;;;;;9.50;7.25;;;;;;;;;;5084545;28;20186;-45
2021/12/26 13:21:29;;;;;;;9.57;7.57;;;;;;;;;;5085672;28;20562;-45
2021/12/26 13:23:55;;;;;;;9.02;7.35;;;;;;;;;;5090286;28;20219;-45
2021/12/26 13:26:21;;;;;;;10.05;7.70;;;;;;;;;;5089150;28;20212;-45
2021/12/26 13:28:47;;;;;;;8.35;6.55;;;;;;;;;;5087318;28;20212;-45
2021/12/26 13:31:15;;;;;;;8.82;6.90;;;;;;;;;;5086489;28;20300;-45
2021/12/26 13:33:41;;;;;;;8.98;7.05;;;;;;;;;;5087689;28;20196;-45
2021/12/26 13:36:14;;;;;;;9.85;7.00;;;;;;;;;;5092977;28;20197;-45
2021/12/26 13:38:40;;;;;;;9.23;6.70;;;;;;;;;;5093659;28;20223;-45
2021/12/26 13:41:08;;;;;;;7.57;6.32;;;;;;;;;;5093781;28;20224;-45
2021/12/26 13:43:35;;;;;;;8.48;7.15;;;;;;;;;;5094034;28;20200;-45
2021/12/26 13:46:01;;;;;;;8.80;7.13;;;;;;;;;;5091424;28;20260;-45
2021/12/26 13:48:30;;;;;;;7.82;6.20;;;;;;;;;;5097363;28;20292;-45
2021/12/26 13:50:57;;;;;;;7.80;6.40;;;;;;;;;;5105401;28;20495;-45
2021/12/26 13:53:23;;;;;;;7.40;6.35;;;;;;;;;;5095220;28;20179;-45
2021/12/26 13:55:53;;;;;;;9.02;7.28;;;;;;;;;;5077813;28;20441;-45
2021/12/26 13:58:19;;;;;;;9.57;6.75;;;;;;;;;;5095023;28;20565;-45
2021/12/26 14:00:50;;;;;;;8.10;6.78;;;;;;;;;;5095620;28;20185;-45
2021/12/26 14:03:16;;;;;;;9.32;6.68;;;;;;;;;;5095969;28;20181;-45
2021/12/26 14:05:42;;;;;;;7.93;6.63;;;;;;;;;;5079100;28;20475;-45
2021/12/26 14:08:14;;;;;;;8.43;6.75;;;;;;;;;;5095797;28;20224;-45
2021/12/26 14:10:40;;;;;;;7.80;6.47;;;;;;;;;;5094317;28;20224;-45
2021/12/26 14:13:08;;;;;;;8.25;6.85;;;;;;;;;;5074852;28;20166;-45
2021/12/26 14:15:44;;;;;;;8.60;6.57;;;;;;;;;;5095891;28;20178;-45
2021/12/26 14:18:18;;;;;;;8.10;6.43;;;;;;;;;;5088514;28;20264;-45
2021/12/26 14:20:56;;;;;;;8.05;6.25;;;;;;;;;;5072206;28;20236;-45
2021/12/26 14:23:26;;;;;;;8.52;6.63;;;;;;;;;;5101440;28;20476;-45
2021/12/26 14:25:53;;;;;;;9.43;6.60;;;;;;;;;;5091920;28;20193;-44
2021/12/26 14:28:19;;;;;;;7.57;6.05;;;;;;;;;;5099080;28;20284;-45
2021/12/26 14:30:46;;;;;;;8.13;6.75;;;;;;;;;;5096874;28;20212;-45
2021/12/26 14:33:13;;;;;;;8.82;6.82;;;;;;;;;;5078011;28;20224;-45
2021/12/26 14:35:40;;;;;;;7.40;6.22;;;;;;;;;;5095026;28;20184;-45
2021/12/26 14:38:10;;;;;;;6.82;6.13;;;;;;;;;;5101450;28;20495;-45